createdAt,value
2019-04-11T00:02:16.443Z,101765.13
2019-04-11T00:05:41.161Z,101772.14
2019-04-11T00:09:08.775Z,101768.55
2019-04-11T00:12:32.637Z,101770.41
2019-04-11T00:15:55.751Z,101773.30
2019-04-11T00:19:21.088Z,101767.48
2019-04-11T00:22:44.329Z,101768.94
2019-04-11T00:26:08.401Z,101769.88
2019-04-11T00:29:31.569Z,101776.54
2019-04-11T00:32:54.546Z,101772.67
2019-04-11T00:36:18.655Z,101772.92
2019-04-11T00:39:41.825Z,101771.55
2019-04-11T00:43:05.236Z,101771.52
2019-04-11T00:46:28.705Z,101774.98
2019-04-11T00:49:52.085Z,101779.01
2019-04-11T00:53:16.026Z,101781.97
2019-04-11T00:56:40.070Z,101783.77
2019-04-11T01:00:05.166Z,101783.16
2019-04-11T01:03:30.499Z,101784.60
2019-04-11T01:06:54.336Z,101784.58
2019-04-11T01:10:18.145Z,101786.19
2019-04-11T01:13:47.764Z,101785.91
2019-04-11T01:17:07.717Z,101791.75
2019-04-11T01:20:31.394Z,101789.88
2019-04-11T01:23:55.435Z,101796.01
2019-04-11T01:27:18.525Z,101789.39
2019-04-11T01:30:49.877Z,101795.19
2019-04-11T01:34:12.907Z,101788.64
2019-04-11T01:37:37.053Z,101788.64
2019-04-11T01:41:00.744Z,101796.53
2019-04-11T01:44:24.935Z,101795.41
2019-04-11T01:48:11.138Z,101793.26
2019-04-11T01:51:34.283Z,101799.20
2019-04-11T01:54:57.719Z,101807.72
2019-04-11T01:58:20.734Z,101801.89
2019-04-11T02:02:03.341Z,101799.33
2019-04-11T02:05:29.339Z,101812.33
2019-04-11T02:08:52.653Z,101802.91
2019-04-11T02:12:16.266Z,101806.73
2019-04-11T02:15:40.734Z,101818.38
2019-04-11T02:19:04.059Z,101816.35
2019-04-11T02:22:46.639Z,101818.73
2019-04-11T02:26:21.173Z,101824.50
2019-04-11T02:29:44.772Z,101824.79
2019-04-11T02:33:10.014Z,101827.08
2019-04-11T02:36:34.194Z,101831.72
2019-04-11T02:39:59.950Z,101831.20
2019-04-11T02:43:25.228Z,101827.41
2019-04-11T02:46:58.036Z,101834.34
2019-04-11T02:50:17.117Z,101833.92
2019-04-11T02:53:39.010Z,101839.12
2019-04-11T02:57:02.773Z,101839.05
2019-04-11T03:00:27.257Z,101836.27
2019-04-11T03:03:51.972Z,101836.89
2019-04-11T03:07:16.566Z,101837.81
2019-04-11T03:10:40.879Z,101841.55
2019-04-11T03:14:04.385Z,101837.59
2019-04-11T03:17:33.441Z,101841.27
2019-04-11T03:20:56.870Z,101843.59
2019-04-11T03:24:19.194Z,101845.23
2019-04-11T03:27:43.346Z,101845.55
2019-04-11T03:31:47.338Z,101852.75
2019-04-11T03:38:19.430Z,101859.73
2019-04-11T03:41:42.549Z,101855.69
2019-04-11T03:45:12.526Z,101857.59
2019-04-11T03:48:29.109Z,101853.38
2019-04-11T03:51:40.920Z,101865.56
2019-04-11T03:55:06.899Z,101859.09
2019-04-11T03:58:31.150Z,101866.09
2019-04-11T04:01:56.615Z,101867.11
2019-04-11T04:05:21.676Z,101870.04
2019-04-11T04:08:46.480Z,101869.02
2019-04-11T04:12:11.452Z,101871.47
2019-04-11T04:16:03.971Z,101873.28
2019-04-11T04:19:37.488Z,101873.38
2019-04-11T04:23:07.615Z,101874.58
2019-04-11T04:26:33.554Z,101877.27
2019-04-11T04:29:58.508Z,101885.19
2019-04-11T04:33:22.793Z,101891.63
2019-04-11T04:36:47.253Z,101894.30
2019-04-11T04:40:26.695Z,101896.42
2019-04-11T04:43:36.428Z,101898.70
2019-04-11T04:47:13.019Z,101906.90
2019-04-11T04:50:26.525Z,101902.41
2019-04-11T04:53:50.145Z,101917.69
2019-04-11T04:57:15.394Z,101913.33
2019-04-11T05:00:39.678Z,101925.43
2019-04-11T05:04:04.775Z,101924.13
2019-04-11T05:07:31.161Z,101933.20
2019-04-11T05:10:53.513Z,101930.66
2019-04-11T05:14:16.903Z,101932.96
2019-04-11T05:17:41.788Z,101934.71
2019-04-11T05:21:05.338Z,101936.73
2019-04-11T05:24:28.463Z,101937.55
2019-04-11T05:27:51.460Z,101943.90
2019-04-11T05:31:14.561Z,101940.52
2019-04-11T05:34:37.579Z,101944.09
2019-04-11T05:38:00.595Z,101944.27
2019-04-11T05:41:24.706Z,101952.30
2019-04-11T05:44:49.921Z,101950.38
2019-04-11T05:48:41.700Z,101952.59
2019-04-11T05:52:06.416Z,101956.30
2019-04-11T05:55:32.138Z,101959.03
2019-04-11T05:58:59.916Z,101963.52
2019-04-11T06:02:43.906Z,101960.20
2019-04-11T06:06:39.426Z,101963.85
2019-04-11T06:10:08.453Z,101964.38
2019-04-11T06:13:36.451Z,101961.12
2019-04-11T06:17:02.981Z,101972.14
2019-04-11T06:20:41.217Z,101973.31
2019-04-11T06:24:23.757Z,101972.02
2019-04-11T06:28:01.939Z,101981.91
2019-04-11T06:31:45.835Z,101985.55
2019-04-11T06:35:17.137Z,101989.70
2019-04-11T06:39:05.141Z,101991.09
2019-04-11T06:42:43.821Z,101989.94
2019-04-11T06:46:29.622Z,101995.91
2019-04-11T06:50:19.347Z,101995.64
2019-04-11T06:53:49.044Z,101997.69
2019-04-11T06:57:16.164Z,102005.19
2019-04-11T07:00:41.392Z,102004.21
2019-04-11T07:04:11.679Z,102009.34
2019-04-11T07:07:36.180Z,102002.46
2019-04-11T07:11:02.996Z,102003.97
2019-04-11T07:14:40.896Z,101998.48
2019-04-11T07:18:22.782Z,101995.24
2019-04-11T07:21:48.200Z,102002.84
2019-04-11T07:25:37.320Z,102002.91
2019-04-11T07:29:23.924Z,102002.98
2019-04-11T07:32:47.694Z,102001.77
2019-04-11T07:36:29.585Z,102006.59
2019-04-11T07:40:24.511Z,102004.09
2019-04-11T07:43:47.761Z,102001.47
2019-04-11T07:47:24.964Z,102008.64
2019-04-11T07:50:46.896Z,102005.69
2019-04-11T07:54:13.691Z,102010.63
2019-04-11T07:57:44.676Z,102008.72
2019-04-11T08:01:33.911Z,102013.86
2019-04-11T08:05:16.572Z,102013.05
2019-04-11T08:08:58.211Z,102011.70
2019-04-11T08:12:24.189Z,102018.20
2019-04-11T08:16:18.184Z,102017.75
2019-04-11T08:20:00.114Z,102020.66
2019-04-11T08:23:23.549Z,102029.35
2019-04-11T08:27:07.292Z,102029.42
2019-04-11T08:30:39.902Z,102030.68
2019-04-11T08:34:06.845Z,102026.59
2019-04-11T08:37:35.757Z,102027.56
2019-04-11T08:41:09.248Z,102024.86
2019-04-11T08:44:34.761Z,102030.36
2019-04-11T08:48:00.285Z,102032.53
2019-04-11T08:51:23.883Z,102036.56
2019-04-11T08:55:06.229Z,102031.91
2019-04-11T08:58:38.471Z,102029.16
2019-04-11T09:02:02.653Z,102033.41
2019-04-11T09:05:35.480Z,102035.17
2019-04-11T09:09:23.000Z,102034.47
2019-04-11T09:12:55.132Z,102033.81
2019-04-11T09:16:37.836Z,102033.59
2019-04-11T09:20:19.418Z,102035.36
2019-04-11T09:23:43.910Z,102032.28
2019-04-11T09:27:26.739Z,102029.55
2019-04-11T09:31:15.364Z,102032.81
2019-04-11T09:34:54.389Z,102024.81
2019-04-11T09:38:18.187Z,102024.05
2019-04-11T09:41:58.760Z,102021.84
2019-04-11T09:45:44.273Z,102022.48
2019-04-11T09:49:24.872Z,102027.67
2019-04-11T09:52:49.475Z,102016.78
2019-04-11T09:56:38.151Z,102020.67
2019-04-11T10:00:20.893Z,102022.22
2019-04-11T10:03:45.170Z,102019.33
2019-04-11T10:07:37.698Z,102019.76
2019-04-11T10:11:19.130Z,102023.03
2019-04-11T10:14:44.165Z,102024.30
2019-04-11T10:18:30.094Z,102022.72
2019-04-11T10:22:10.946Z,102024.45
2019-04-11T10:25:47.811Z,102015.14
2019-04-11T10:29:31.653Z,102012.03
2019-04-11T10:32:59.363Z,102013.31
2019-04-11T10:36:31.546Z,102011.16
2019-04-11T10:40:04.003Z,102012.09
2019-04-11T10:43:27.255Z,102010.03
2019-04-11T10:46:53.113Z,102011.35
2019-04-11T10:50:36.066Z,102005.53
2019-04-11T10:53:59.667Z,102013.28
2019-04-11T10:57:42.783Z,102010.41
2019-04-11T11:01:25.592Z,102007.44
2019-04-11T11:04:52.626Z,102015.48
2019-04-11T11:08:33.997Z,102023.34
2019-04-11T11:12:21.117Z,102020.25
2019-04-11T11:15:56.045Z,102016.41
2019-04-11T11:19:52.892Z,102021.70
2019-04-11T11:23:31.237Z,102024.53
2019-04-11T11:26:56.453Z,102025.07
2019-04-11T11:30:58.386Z,102027.08
2019-04-11T11:34:32.658Z,102026.93
2019-04-11T11:38:01.847Z,102025.17
2019-04-11T11:41:43.393Z,102016.70
2019-04-11T11:45:14.763Z,102017.77
2019-04-11T11:48:49.588Z,102022.23
2019-04-11T11:52:48.987Z,102015.63
2019-04-11T11:56:12.066Z,102004.89
2019-04-11T11:59:46.489Z,102015.61
2019-04-11T12:03:31.033Z,102012.85
2019-04-11T12:07:03.629Z,102013.62
2019-04-11T12:10:37.644Z,102007.09
2019-04-11T12:14:35.585Z,102010.42
2019-04-11T12:18:10.997Z,102002.10
2019-04-11T12:21:34.788Z,102005.63
2019-04-11T12:25:04.967Z,102011.38
2019-04-11T12:28:57.551Z,102011.73
2019-04-11T12:32:24.284Z,102008.81
2019-04-11T12:36:12.446Z,102002.70
2019-04-11T12:39:54.099Z,101998.70
2019-04-11T12:43:17.181Z,101989.29
2019-04-11T12:46:58.665Z,102001.80
2019-04-11T12:50:41.352Z,101995.80
2019-04-11T12:54:07.081Z,101989.40
2019-04-11T12:57:48.622Z,101988.23
2019-04-11T13:01:30.877Z,101989.16
2019-04-11T13:04:54.653Z,101981.02
2019-04-11T13:08:36.437Z,101987.02
2019-04-11T13:12:00.311Z,101978.64
2019-04-11T13:15:36.053Z,101978.25
2019-04-11T13:19:19.029Z,101967.30
2019-04-11T13:22:42.293Z,101970.30
2019-04-11T13:26:21.617Z,101976.12
2019-04-11T13:30:04.403Z,101971.20
2019-04-11T13:33:28.090Z,101976.28
2019-04-11T13:37:16.466Z,101977.38
2019-04-11T13:41:02.194Z,101972.64
2019-04-11T13:44:28.616Z,101965.37
2019-04-11T13:48:23.684Z,101965.77
2019-04-11T13:52:06.437Z,101971.37
2019-04-11T13:55:31.999Z,101967.41
2019-04-11T13:59:17.940Z,101960.73
2019-04-11T14:02:55.146Z,101963.80
2019-04-11T14:06:32.800Z,101955.66
2019-04-11T14:09:55.977Z,101955.36
2019-04-11T14:13:19.175Z,101944.05
2019-04-11T14:16:50.591Z,101951.67
2019-04-11T14:20:30.427Z,101949.28
2019-04-11T14:24:16.330Z,101953.04
2019-04-11T14:27:39.721Z,101937.30
2019-04-11T14:31:26.069Z,101945.84
2019-04-11T14:35:11.904Z,101943.33
2019-04-11T14:38:45.405Z,101944.50
2019-04-11T14:42:24.732Z,101940.69
2019-04-11T14:46:22.532Z,101940.95
2019-04-11T14:49:48.683Z,101946.95
2019-04-11T14:53:29.903Z,101939.72
2019-04-11T14:57:06.555Z,101938.31
2019-04-11T15:00:32.655Z,101930.55
2019-04-11T15:04:14.628Z,101928.45
2019-04-11T15:07:39.096Z,101929.56
2019-04-11T15:11:11.283Z,101933.27
2019-04-11T15:14:59.698Z,101931.00
2019-04-11T15:18:26.779Z,101939.56
2019-04-11T15:22:07.181Z,101938.49
2019-04-11T15:25:49.842Z,101932.39
2019-04-11T15:29:21.496Z,101934.10
2019-04-11T15:33:07.416Z,101939.05
2019-04-11T15:36:30.855Z,101940.23
2019-04-11T15:40:08.283Z,101951.83
2019-04-11T15:44:03.360Z,101947.57
2019-04-11T15:47:27.167Z,101942.66
2019-04-11T15:51:08.803Z,101951.83
2019-04-11T15:54:54.642Z,101942.37
2019-04-11T15:58:19.246Z,101949.48
2019-04-11T16:02:02.042Z,101954.23
2019-04-11T16:05:47.480Z,101960.17
2019-04-11T16:09:15.485Z,101965.09
2019-04-11T16:12:46.197Z,101970.58
2019-04-11T16:16:11.962Z,101962.52
2019-04-11T16:20:02.810Z,101964.62
2019-04-11T16:23:34.437Z,101962.27
2019-04-11T16:27:05.865Z,101955.05
2019-04-11T16:30:29.195Z,101959.69
2019-04-11T16:34:16.990Z,101963.77
2019-04-11T16:37:41.858Z,101963.92
2019-04-11T16:41:23.911Z,101961.17
2019-04-11T16:45:24.690Z,101965.52
2019-04-11T16:48:47.670Z,101963.90
2019-04-11T16:52:13.148Z,101964.34
2019-04-11T16:55:42.114Z,101968.34
2019-04-11T16:59:03.544Z,101975.09
2019-04-11T17:02:28.990Z,101970.09
2019-04-11T17:06:14.308Z,101972.41
2019-04-11T17:09:41.435Z,101970.84
2019-04-11T17:13:04.527Z,101968.69
2019-04-11T17:16:30.704Z,101972.18
2019-04-11T17:19:52.989Z,101978.69
2019-04-11T17:23:17.215Z,101987.84
2019-04-11T17:26:41.196Z,101983.81
2019-04-11T17:30:04.755Z,101983.45
2019-04-11T17:33:28.758Z,101986.17
2019-04-11T17:36:52.178Z,101989.36
2019-04-11T17:40:15.231Z,101990.77
2019-04-11T17:43:39.052Z,101997.27
2019-04-11T17:47:02.311Z,101999.33
2019-04-11T17:50:25.738Z,101999.34
2019-04-11T17:53:48.927Z,102006.81
2019-04-11T17:57:12.264Z,102010.33
2019-04-11T18:00:44.790Z,102013.14
2019-04-11T18:04:13.278Z,102014.52
2019-04-11T18:07:34.827Z,102012.48
2019-04-11T18:11:00.370Z,102020.88
2019-04-11T18:14:23.885Z,102015.50
2019-04-11T18:17:47.322Z,102024.34
2019-04-11T18:21:10.654Z,102024.84
2019-04-11T18:24:33.990Z,102033.86
2019-04-11T18:27:57.019Z,102033.81
2019-04-11T18:31:20.029Z,102037.25
2019-04-11T18:34:42.964Z,102036.12
2019-04-11T18:38:06.070Z,102043.84
2019-04-11T18:41:29.601Z,102051.25
2019-04-11T18:44:53.120Z,102047.10
2019-04-11T18:48:16.247Z,102053.55
2019-04-11T18:51:39.267Z,102056.73
2019-04-11T18:55:03.510Z,102064.02
2019-04-11T18:58:28.120Z,102062.25
2019-04-11T19:01:51.381Z,102069.38
2019-04-11T19:05:23.313Z,102070.81
2019-04-11T19:08:43.331Z,102073.16
2019-04-11T19:12:09.149Z,102070.78
2019-04-11T19:15:32.828Z,102070.96
2019-04-11T19:18:56.311Z,102080.39
2019-04-11T19:22:36.343Z,102080.28
2019-04-11T19:25:45.313Z,102085.77
2019-04-11T19:29:08.841Z,102089.25
2019-04-11T19:32:32.990Z,102100.33
2019-04-11T19:35:56.443Z,102103.03
2019-04-11T19:39:19.981Z,102101.36
2019-04-11T19:42:43.576Z,102096.66
2019-04-11T19:46:07.190Z,102100.45
2019-04-11T19:49:30.486Z,102100.91
2019-04-11T19:52:53.649Z,102100.88
2019-04-11T19:56:22.114Z,102101.98
2019-04-11T19:59:45.787Z,102103.66
2019-04-11T20:03:08.934Z,102101.43
2019-04-11T20:06:32.308Z,102098.66
2019-04-11T20:09:55.601Z,102106.55
2019-04-11T20:13:19.909Z,102104.52
2019-04-11T20:16:48.173Z,102107.69
2019-04-11T20:20:09.094Z,102113.70
2019-04-11T20:23:32.270Z,102106.55
2019-04-11T20:26:55.654Z,102107.14
2019-04-11T20:30:20.163Z,102108.95
2019-04-11T20:33:43.518Z,102102.40
2019-04-11T20:37:06.650Z,102107.69
2019-04-11T20:40:29.764Z,102108.96
2019-04-11T20:43:56.040Z,102097.48
2019-04-11T20:47:18.265Z,102105.17
2019-04-11T20:50:41.397Z,102103.65
2019-04-11T20:54:07.014Z,102108.45
2019-04-11T20:57:29.433Z,102107.36
2019-04-11T21:01:05.155Z,102109.69
2019-04-11T21:04:28.230Z,102106.84
2019-04-11T21:07:51.301Z,102117.67
2019-04-11T21:11:14.323Z,102120.09
2019-04-11T21:14:37.359Z,102117.19
2019-04-11T21:18:00.370Z,102120.93
2019-04-11T21:21:25.248Z,102116.38
2019-04-11T21:24:48.440Z,102119.52
2019-04-11T21:28:11.525Z,102116.85
2019-04-11T21:31:34.537Z,102121.22
2019-04-11T21:34:57.544Z,102116.89
2019-04-11T21:38:21.590Z,102118.05
2019-04-11T21:41:45.373Z,102127.63
2019-04-11T21:45:10.564Z,102134.47
2019-04-11T21:48:35.543Z,102131.66
2019-04-11T21:51:58.596Z,102138.84
2019-04-11T21:55:21.764Z,102143.16
2019-04-11T21:58:44.795Z,102140.78
2019-04-11T22:02:09.101Z,102145.19
2019-04-11T22:05:32.259Z,102142.55
2019-04-11T22:08:55.260Z,102145.30
2019-04-11T22:12:18.358Z,102140.46
2019-04-11T22:15:42.518Z,102136.49
2019-04-11T22:19:06.239Z,102136.16
2019-04-11T22:22:29.251Z,102134.48
2019-04-11T22:25:52.385Z,102139.91
2019-04-11T22:29:16.053Z,102143.03
2019-04-11T22:32:41.368Z,102145.13
2019-04-11T22:36:04.324Z,102149.25
2019-04-11T22:39:29.023Z,102142.75
2019-04-11T22:42:52.347Z,102146.69
2019-04-11T22:46:20.705Z,102147.20
2019-04-11T22:49:40.400Z,102147.39
2019-04-11T22:53:03.418Z,102147.73
2019-04-11T22:56:26.498Z,102150.14
2019-04-11T22:59:49.527Z,102155.17
2019-04-11T23:03:23.096Z,102152.53
2019-04-11T23:06:47.210Z,102154.35
2019-04-11T23:10:11.163Z,102150.09
2019-04-11T23:13:34.690Z,102149.27
2019-04-11T23:16:57.656Z,102152.55
2019-04-11T23:20:21.735Z,102155.33
2019-04-11T23:23:44.745Z,102154.30
2019-04-11T23:27:07.759Z,102154.63
2019-04-11T23:30:30.818Z,102150.89
2019-04-11T23:33:54.202Z,102154.11
2019-04-11T23:37:18.690Z,102158.57
2019-04-11T23:40:42.111Z,102160.83
2019-04-11T23:44:05.215Z,102169.86
2019-04-11T23:47:28.267Z,102170.36
2019-04-11T23:50:54.822Z,102170.95
2019-04-11T23:54:22.948Z,102172.89
2019-04-11T23:57:42.116Z,102173.05
